Denham Springs, Louisiana
Current Conditions -  °F | °C
As of 2:53 AM on Saturday 22 Nov 2014 (Local Time) from KBTR Reporting Station
Clear Clear  
Wind Chill: 50°   Ceiling: Unl
Heat Index: 50°   Visibility: 10mi
Dew Point: 48°   Wind: 5mph
Humidity: 93%   Direction: 60°ENE
Pressure: 30.23"   Gusts: NA
Location:  30.49°N, 90.95°W
Report Text: KBTR 220853Z AUTO 06004KT 10SM CLR 10/09 A3023 RMK AO2 SLP235 T01000089 56006 TSNO
Loading
Personal Weather Stations






























Interactive Weather Map New forecast layout! Learn more

10-Day Weather Forecast

Advertisements
Track Severe Weather on mobile